sensor_id;sensor_type;location;lat;lon;timestamp;P1;durP1;ratioP1;P2;durP2;ratioP2
16854;SDS011;8543;54.522;18.550;2023-05-21T00:00:45;9.40;;;4.60;;
16854;SDS011;8543;54.522;18.550;2023-05-21T00:03:11;10.50;;;4.90;;
16854;SDS011;8543;54.522;18.550;2023-05-21T00:05:40;8.90;;;5.00;;
16854;SDS011;8543;54.522;18.550;2023-05-21T00:08:05;8.30;;;4.30;;
16854;SDS011;8543;54.522;18.550;2023-05-21T00:10:30;6.80;;;3.90;;
16854;SDS011;8543;54.522;18.550;2023-05-21T00:12:56;9.30;;;4.70;;
16854;SDS011;8543;54.522;18.550;2023-05-21T00:15:21;7.30;;;4.20;;
16854;SDS011;8543;54.522;18.550;2023-05-21T00:17:47;8.20;;;4.50;;
16854;SDS011;8543;54.522;18.550;2023-05-21T00:20:12;8.90;;;4.70;;
16854;SDS011;8543;54.522;18.550;2023-05-21T00:22:38;7.60;;;4.40;;
16854;SDS011;8543;54.522;18.550;2023-05-21T00:25:04;8.50;;;4.60;;
16854;SDS011;8543;54.522;18.550;2023-05-21T00:27:30;9.60;;;4.60;;
16854;SDS011;8543;54.522;18.550;2023-05-21T00:29:56;9.50;;;4.80;;
16854;SDS011;8543;54.522;18.550;2023-05-21T00:32:21;7.90;;;5.00;;
16854;SDS011;8543;54.522;18.550;2023-05-21T00:34:46;7.70;;;4.40;;
16854;SDS011;8543;54.522;18.550;2023-05-21T00:37:12;6.60;;;4.10;;
16854;SDS011;8543;54.522;18.550;2023-05-21T00:39:39;7.10;;;3.70;;
16854;SDS011;8543;54.522;18.550;2023-05-21T00:42:05;9.10;;;4.50;;
16854;SDS011;8543;54.522;18.550;2023-05-21T00:44:30;5.90;;;4.40;;
16854;SDS011;8543;54.522;18.550;2023-05-21T00:47:03;8.30;;;4.90;;
16854;SDS011;8543;54.522;18.550;2023-05-21T00:49:29;9.20;;;4.60;;
16854;SDS011;8543;54.522;18.550;2023-05-21T00:51:54;6.80;;;4.50;;
16854;SDS011;8543;54.522;18.550;2023-05-21T00:54:20;8.40;;;5.10;;
16854;SDS011;8543;54.522;18.550;2023-05-21T00:56:46;7.80;;;4.80;;
16854;SDS011;8543;54.522;18.550;2023-05-21T00:59:12;9.10;;;4.50;;
16854;SDS011;8543;54.522;18.550;2023-05-21T01:01:39;7.10;;;4.30;;
16854;SDS011;8543;54.522;18.550;2023-05-21T01:04:04;9.10;;;4.60;;
16854;SDS011;8543;54.522;18.550;2023-05-21T01:06:30;6.30;;;4.80;;
16854;SDS011;8543;54.522;18.550;2023-05-21T01:08:58;11.00;;;5.20;;
16854;SDS011;8543;54.522;18.550;2023-05-21T01:11:30;6.80;;;4.30;;
16854;SDS011;8543;54.522;18.550;2023-05-21T01:14:00;5.40;;;4.20;;
16854;SDS011;8543;54.522;18.550;2023-05-21T01:16:25;7.00;;;4.80;;
16854;SDS011;8543;54.522;18.550;2023-05-21T01:18:50;8.60;;;4.80;;
16854;SDS011;8543;54.522;18.550;2023-05-21T01:21:17;6.40;;;4.50;;
16854;SDS011;8543;54.522;18.550;2023-05-21T01:23:45;10.70;;;4.90;;
16854;SDS011;8543;54.522;18.550;2023-05-21T01:26:11;8.60;;;4.80;;
16854;SDS011;8543;54.522;18.550;2023-05-21T01:28:37;6.80;;;4.30;;
16854;SDS011;8543;54.522;18.550;2023-05-21T01:31:04;6.70;;;4.80;;
16854;SDS011;8543;54.522;18.550;2023-05-21T01:33:43;10.70;;;5.30;;
16854;SDS011;8543;54.522;18.550;2023-05-21T01:36:23;9.10;;;4.70;;
16854;SDS011;8543;54.522;18.550;2023-05-21T01:39:00;9.60;;;4.60;;
16854;SDS011;8543;54.522;18.550;2023-05-21T01:41:50;8.00;;;5.00;;
16854;SDS011;8543;54.522;18.550;2023-05-21T01:44:17;7.30;;;4.70;;
16854;SDS011;8543;54.522;18.550;2023-05-21T01:46:43;7.10;;;4.60;;
16854;SDS011;8543;54.522;18.550;2023-05-21T01:49:08;9.40;;;5.30;;
16854;SDS011;8543;54.522;18.550;2023-05-21T01:51:35;7.70;;;5.20;;
16854;SDS011;8543;54.522;18.550;2023-05-21T01:54:01;8.90;;;5.60;;
16854;SDS011;8543;54.522;18.550;2023-05-21T01:56:26;6.70;;;4.90;;
16854;SDS011;8543;54.522;18.550;2023-05-21T01:58:53;8.60;;;5.70;;
16854;SDS011;8543;54.522;18.550;2023-05-21T02:01:21;10.80;;;6.30;;
16854;SDS011;8543;54.522;18.550;2023-05-21T02:03:46;10.70;;;6.70;;
16854;SDS011;8543;54.522;18.550;2023-05-21T02:06:12;11.50;;;7.30;;
16854;SDS011;8543;54.522;18.550;2023-05-21T02:08:37;7.80;;;6.10;;
16854;SDS011;8543;54.522;18.550;2023-05-21T02:11:03;13.60;;;7.40;;
16854;SDS011;8543;54.522;18.550;2023-05-21T02:13:28;9.50;;;6.70;;
16854;SDS011;8543;54.522;18.550;2023-05-21T02:15:54;9.10;;;6.00;;
16854;SDS011;8543;54.522;18.550;2023-05-21T02:18:20;10.30;;;6.60;;
16854;SDS011;8543;54.522;18.550;2023-05-21T02:20:45;8.40;;;5.70;;
16854;SDS011;8543;54.522;18.550;2023-05-21T02:23:11;9.70;;;5.90;;
16854;SDS011;8543;54.522;18.550;2023-05-21T02:25:36;9.40;;;5.70;;
16854;SDS011;8543;54.522;18.550;2023-05-21T02:28:02;8.50;;;5.60;;
16854;SDS011;8543;54.522;18.550;2023-05-21T02:30:27;9.30;;;5.80;;
16854;SDS011;8543;54.522;18.550;2023-05-21T02:32:53;11.20;;;5.60;;
16854;SDS011;8543;54.522;18.550;2023-05-21T02:35:19;8.80;;;6.40;;
16854;SDS011;8543;54.522;18.550;2023-05-21T02:37:44;11.30;;;6.50;;
16854;SDS011;8543;54.522;18.550;2023-05-21T02:40:10;11.70;;;6.40;;
16854;SDS011;8543;54.522;18.550;2023-05-21T02:42:36;10.10;;;6.20;;
16854;SDS011;8543;54.522;18.550;2023-05-21T02:45:04;10.20;;;6.60;;
16854;SDS011;8543;54.522;18.550;2023-05-21T02:47:30;9.90;;;6.70;;
16854;SDS011;8543;54.522;18.550;2023-05-21T02:49:57;11.80;;;7.60;;
16854;SDS011;8543;54.522;18.550;2023-05-21T02:52:23;12.70;;;8.00;;
16854;SDS011;8543;54.522;18.550;2023-05-21T02:54:49;11.00;;;7.80;;
16854;SDS011;8543;54.522;18.550;2023-05-21T02:57:15;12.50;;;8.20;;
16854;SDS011;8543;54.522;18.550;2023-05-21T02:59:42;10.50;;;7.80;;
16854;SDS011;8543;54.522;18.550;2023-05-21T03:02:08;10.30;;;7.20;;
16854;SDS011;8543;54.522;18.550;2023-05-21T03:04:33;10.20;;;6.80;;
16854;SDS011;8543;54.522;18.550;2023-05-21T03:07:03;11.10;;;7.90;;
16854;SDS011;8543;54.522;18.550;2023-05-21T03:09:29;10.20;;;6.70;;
16854;SDS011;8543;54.522;18.550;2023-05-21T03:11:54;10.30;;;6.50;;
16854;SDS011;8543;54.522;18.550;2023-05-21T03:14:20;10.70;;;6.80;;
16854;SDS011;8543;54.522;18.550;2023-05-21T03:16:45;9.60;;;6.80;;
16854;SDS011;8543;54.522;18.550;2023-05-21T03:19:11;11.30;;;6.60;;
16854;SDS011;8543;54.522;18.550;2023-05-21T03:21:37;8.90;;;6.30;;
16854;SDS011;8543;54.522;18.550;2023-05-21T03:24:06;8.70;;;6.70;;
16854;SDS011;8543;54.522;18.550;2023-05-21T03:26:31;8.70;;;6.10;;
16854;SDS011;8543;54.522;18.550;2023-05-21T03:28:57;9.70;;;6.40;;
16854;SDS011;8543;54.522;18.550;2023-05-21T03:31:23;7.80;;;6.10;;
16854;SDS011;8543;54.522;18.550;2023-05-21T03:33:49;8.40;;;6.50;;
16854;SDS011;8543;54.522;18.550;2023-05-21T03:36:15;8.00;;;6.30;;
16854;SDS011;8543;54.522;18.550;2023-05-21T03:38:41;8.00;;;5.80;;
16854;SDS011;8543;54.522;18.550;2023-05-21T03:41:07;8.80;;;6.00;;
16854;SDS011;8543;54.522;18.550;2023-05-21T03:43:32;8.10;;;5.70;;
16854;SDS011;8543;54.522;18.550;2023-05-21T03:45:58;10.00;;;6.20;;
16854;SDS011;8543;54.522;18.550;2023-05-21T03:48:23;8.60;;;6.20;;
16854;SDS011;8543;54.522;18.550;2023-05-21T03:50:48;8.30;;;6.40;;
16854;SDS011;8543;54.522;18.550;2023-05-21T03:53:14;9.00;;;6.80;;
16854;SDS011;8543;54.522;18.550;2023-05-21T03:55:39;7.90;;;6.10;;
16854;SDS011;8543;54.522;18.550;2023-05-21T03:58:05;8.70;;;6.60;;
16854;SDS011;8543;54.522;18.550;2023-05-21T04:00:30;9.40;;;6.70;;
16854;SDS011;8543;54.522;18.550;2023-05-21T04:02:56;9.20;;;6.60;;
16854;SDS011;8543;54.522;18.550;2023-05-21T04:05:22;9.70;;;6.80;;
16854;SDS011;8543;54.522;18.550;2023-05-21T04:07:48;10.30;;;6.70;;
16854;SDS011;8543;54.522;18.550;2023-05-21T04:10:14;9.50;;;6.20;;
16854;SDS011;8543;54.522;18.550;2023-05-21T04:12:39;9.20;;;5.90;;
16854;SDS011;8543;54.522;18.550;2023-05-21T04:15:05;9.60;;;7.00;;
16854;SDS011;8543;54.522;18.550;2023-05-21T04:17:31;10.40;;;7.00;;
16854;SDS011;8543;54.522;18.550;2023-05-21T04:19:57;9.70;;;6.00;;
16854;SDS011;8543;54.522;18.550;2023-05-21T04:22:22;10.10;;;6.10;;
16854;SDS011;8543;54.522;18.550;2023-05-21T04:24:50;10.50;;;6.40;;
16854;SDS011;8543;54.522;18.550;2023-05-21T04:27:16;8.70;;;6.00;;
16854;SDS011;8543;54.522;18.550;2023-05-21T04:29:43;8.20;;;5.90;;
16854;SDS011;8543;54.522;18.550;2023-05-21T04:32:08;9.80;;;6.60;;
16854;SDS011;8543;54.522;18.550;2023-05-21T04:34:34;7.70;;;5.50;;
16854;SDS011;8543;54.522;18.550;2023-05-21T04:36:59;9.20;;;6.70;;
16854;SDS011;8543;54.522;18.550;2023-05-21T04:39:26;8.90;;;6.00;;
16854;SDS011;8543;54.522;18.550;2023-05-21T04:41:52;9.50;;;6.10;;
16854;SDS011;8543;54.522;18.550;2023-05-21T04:44:20;7.60;;;5.80;;
16854;SDS011;8543;54.522;18.550;2023-05-21T04:46:46;9.20;;;6.50;;
16854;SDS011;8543;54.522;18.550;2023-05-21T04:49:13;9.50;;;6.70;;
16854;SDS011;8543;54.522;18.550;2023-05-21T04:51:39;8.80;;;6.50;;
16854;SDS011;8543;54.522;18.550;2023-05-21T04:54:05;9.60;;;6.50;;
16854;SDS011;8543;54.522;18.550;2023-05-21T04:56:31;9.40;;;6.20;;
16854;SDS011;8543;54.522;18.550;2023-05-21T04:58:56;8.70;;;5.80;;
16854;SDS011;8543;54.522;18.550;2023-05-21T05:01:22;8.00;;;6.10;;
16854;SDS011;8543;54.522;18.550;2023-05-21T05:03:49;8.40;;;6.40;;
16854;SDS011;8543;54.522;18.550;2023-05-21T05:06:15;8.00;;;6.30;;
16854;SDS011;8543;54.522;18.550;2023-05-21T05:08:41;9.50;;;6.30;;
16854;SDS011;8543;54.522;18.550;2023-05-21T05:11:06;9.20;;;6.30;;
16854;SDS011;8543;54.522;18.550;2023-05-21T05:13:32;7.10;;;6.00;;
16854;SDS011;8543;54.522;18.550;2023-05-21T05:15:58;9.00;;;7.00;;
16854;SDS011;8543;54.522;18.550;2023-05-21T05:18:24;8.30;;;6.40;;
16854;SDS011;8543;54.522;18.550;2023-05-21T05:20:50;8.50;;;6.70;;
16854;SDS011;8543;54.522;18.550;2023-05-21T05:23:16;10.80;;;7.20;;
16854;SDS011;8543;54.522;18.550;2023-05-21T05:25:41;8.40;;;6.40;;
16854;SDS011;8543;54.522;18.550;2023-05-21T05:28:07;8.40;;;6.50;;
16854;SDS011;8543;54.522;18.550;2023-05-21T05:30:32;7.90;;;6.10;;
16854;SDS011;8543;54.522;18.550;2023-05-21T05:32:57;7.40;;;6.40;;
16854;SDS011;8543;54.522;18.550;2023-05-21T05:35:23;7.60;;;6.60;;
16854;SDS011;8543;54.522;18.550;2023-05-21T05:37:48;8.70;;;6.50;;
16854;SDS011;8543;54.522;18.550;2023-05-21T05:40:14;8.10;;;7.00;;
16854;SDS011;8543;54.522;18.550;2023-05-21T05:42:39;8.80;;;6.80;;
16854;SDS011;8543;54.522;18.550;2023-05-21T05:45:05;7.50;;;5.80;;
16854;SDS011;8543;54.522;18.550;2023-05-21T05:47:31;8.10;;;5.90;;
16854;SDS011;8543;54.522;18.550;2023-05-21T05:49:56;7.50;;;5.90;;
16854;SDS011;8543;54.522;18.550;2023-05-21T05:52:21;10.20;;;5.90;;
16854;SDS011;8543;54.522;18.550;2023-05-21T05:54:47;8.50;;;6.00;;
16854;SDS011;8543;54.522;18.550;2023-05-21T05:57:12;6.60;;;5.60;;
16854;SDS011;8543;54.522;18.550;2023-05-21T05:59:38;6.80;;;5.20;;
16854;SDS011;8543;54.522;18.550;2023-05-21T06:02:03;7.90;;;6.30;;
16854;SDS011;8543;54.522;18.550;2023-05-21T06:04:29;9.80;;;7.00;;
16854;SDS011;8543;54.522;18.550;2023-05-21T06:06:55;9.70;;;6.20;;
16854;SDS011;8543;54.522;18.550;2023-05-21T06:09:24;8.60;;;6.40;;
16854;SDS011;8543;54.522;18.550;2023-05-21T06:11:49;10.00;;;8.50;;
16854;SDS011;8543;54.522;18.550;2023-05-21T06:14:15;8.60;;;7.20;;
16854;SDS011;8543;54.522;18.550;2023-05-21T06:16:41;7.90;;;6.40;;
16854;SDS011;8543;54.522;18.550;2023-05-21T06:19:06;7.30;;;6.20;;
16854;SDS011;8543;54.522;18.550;2023-05-21T06:21:31;7.20;;;6.50;;
16854;SDS011;8543;54.522;18.550;2023-05-21T06:23:57;8.60;;;6.50;;
16854;SDS011;8543;54.522;18.550;2023-05-21T06:26:22;8.40;;;7.20;;
16854;SDS011;8543;54.522;18.550;2023-05-21T06:28:48;9.90;;;7.40;;
16854;SDS011;8543;54.522;18.550;2023-05-21T06:31:13;8.00;;;7.20;;
16854;SDS011;8543;54.522;18.550;2023-05-21T06:33:40;8.50;;;7.60;;
16854;SDS011;8543;54.522;18.550;2023-05-21T06:36:05;9.00;;;5.20;;
16854;SDS011;8543;54.522;18.550;2023-05-21T06:38:31;7.30;;;4.70;;
16854;SDS011;8543;54.522;18.550;2023-05-21T06:40:56;8.10;;;6.40;;
16854;SDS011;8543;54.522;18.550;2023-05-21T06:43:22;5.40;;;4.40;;
16854;SDS011;8543;54.522;18.550;2023-05-21T06:45:48;7.70;;;5.50;;
16854;SDS011;8543;54.522;18.550;2023-05-21T06:48:13;5.10;;;4.20;;
16854;SDS011;8543;54.522;18.550;2023-05-21T06:50:41;7.70;;;5.40;;
16854;SDS011;8543;54.522;18.550;2023-05-21T06:53:06;6.10;;;5.00;;
16854;SDS011;8543;54.522;18.550;2023-05-21T06:55:32;6.20;;;4.70;;
16854;SDS011;8543;54.522;18.550;2023-05-21T06:57:58;7.00;;;5.20;;
16854;SDS011;8543;54.522;18.550;2023-05-21T07:00:23;6.80;;;5.10;;
16854;SDS011;8543;54.522;18.550;2023-05-21T07:02:49;7.10;;;4.50;;
16854;SDS011;8543;54.522;18.550;2023-05-21T07:05:14;6.50;;;5.20;;
16854;SDS011;8543;54.522;18.550;2023-05-21T07:07:40;8.10;;;5.10;;
16854;SDS011;8543;54.522;18.550;2023-05-21T07:10:05;7.00;;;5.00;;
16854;SDS011;8543;54.522;18.550;2023-05-21T07:12:32;5.30;;;4.50;;
16854;SDS011;8543;54.522;18.550;2023-05-21T07:14:57;5.90;;;4.70;;
16854;SDS011;8543;54.522;18.550;2023-05-21T07:17:23;5.30;;;4.70;;
16854;SDS011;8543;54.522;18.550;2023-05-21T07:19:48;6.20;;;5.30;;
16854;SDS011;8543;54.522;18.550;2023-05-21T07:22:14;6.20;;;4.90;;
16854;SDS011;8543;54.522;18.550;2023-05-21T07:24:39;6.50;;;4.90;;
16854;SDS011;8543;54.522;18.550;2023-05-21T07:27:05;5.80;;;4.90;;
16854;SDS011;8543;54.522;18.550;2023-05-21T07:29:32;6.00;;;5.20;;
16854;SDS011;8543;54.522;18.550;2023-05-21T07:31:57;5.50;;;4.80;;
16854;SDS011;8543;54.522;18.550;2023-05-21T07:34:23;5.30;;;4.60;;
16854;SDS011;8543;54.522;18.550;2023-05-21T07:36:48;6.80;;;5.30;;
16854;SDS011;8543;54.522;18.550;2023-05-21T07:39:14;6.00;;;5.30;;
16854;SDS011;8543;54.522;18.550;2023-05-21T07:41:39;6.00;;;5.40;;
16854;SDS011;8543;54.522;18.550;2023-05-21T07:44:05;8.20;;;5.90;;
16854;SDS011;8543;54.522;18.550;2023-05-21T07:46:30;6.10;;;5.50;;
16854;SDS011;8543;54.522;18.550;2023-05-21T07:48:55;6.10;;;5.10;;
16854;SDS011;8543;54.522;18.550;2023-05-21T07:51:21;6.70;;;5.90;;
16854;SDS011;8543;54.522;18.550;2023-05-21T07:53:46;6.00;;;5.00;;
16854;SDS011;8543;54.522;18.550;2023-05-21T07:56:12;5.90;;;5.20;;
16854;SDS011;8543;54.522;18.550;2023-05-21T07:58:37;5.80;;;5.00;;
16854;SDS011;8543;54.522;18.550;2023-05-21T08:01:04;6.20;;;5.00;;
16854;SDS011;8543;54.522;18.550;2023-05-21T08:03:30;5.60;;;5.00;;
16854;SDS011;8543;54.522;18.550;2023-05-21T08:05:55;6.50;;;5.30;;
16854;SDS011;8543;54.522;18.550;2023-05-21T08:08:21;7.80;;;5.90;;
16854;SDS011;8543;54.522;18.550;2023-05-21T08:10:47;6.60;;;5.30;;
16854;SDS011;8543;54.522;18.550;2023-05-21T08:13:16;6.30;;;4.90;;
16854;SDS011;8543;54.522;18.550;2023-05-21T08:15:42;5.80;;;4.70;;
16854;SDS011;8543;54.522;18.550;2023-05-21T08:18:07;7.80;;;5.40;;
16854;SDS011;8543;54.522;18.550;2023-05-21T08:20:33;6.10;;;4.70;;
16854;SDS011;8543;54.522;18.550;2023-05-21T08:22:59;7.10;;;5.00;;
16854;SDS011;8543;54.522;18.550;2023-05-21T08:25:25;6.90;;;5.10;;
16854;SDS011;8543;54.522;18.550;2023-05-21T08:27:51;6.10;;;4.70;;
16854;SDS011;8543;54.522;18.550;2023-05-21T08:30:16;7.80;;;5.40;;
16854;SDS011;8543;54.522;18.550;2023-05-21T08:32:42;5.90;;;5.10;;
16854;SDS011;8543;54.522;18.550;2023-05-21T08:35:07;6.80;;;4.70;;
16854;SDS011;8543;54.522;18.550;2023-05-21T08:37:33;6.10;;;4.50;;
16854;SDS011;8543;54.522;18.550;2023-05-21T08:39:59;5.60;;;4.30;;
16854;SDS011;8543;54.522;18.550;2023-05-21T08:45:18;6.30;;;4.90;;
16854;SDS011;8543;54.522;18.550;2023-05-21T08:47:45;6.80;;;4.30;;
16854;SDS011;8543;54.522;18.550;2023-05-21T08:50:12;5.70;;;4.60;;
16854;SDS011;8543;54.522;18.550;2023-05-21T08:52:39;8.10;;;5.60;;
16854;SDS011;8543;54.522;18.550;2023-05-21T08:55:05;6.00;;;5.40;;
16854;SDS011;8543;54.522;18.550;2023-05-21T08:57:32;6.30;;;4.90;;
16854;SDS011;8543;54.522;18.550;2023-05-21T08:59:58;6.00;;;5.00;;
16854;SDS011;8543;54.522;18.550;2023-05-21T09:02:26;8.50;;;4.90;;
16854;SDS011;8543;54.522;18.550;2023-05-21T09:04:52;6.90;;;5.10;;
16854;SDS011;8543;54.522;18.550;2023-05-21T09:07:21;6.50;;;4.80;;
16854;SDS011;8543;54.522;18.550;2023-05-21T09:09:55;6.00;;;4.20;;
16854;SDS011;8543;54.522;18.550;2023-05-21T09:12:25;6.00;;;5.00;;
16854;SDS011;8543;54.522;18.550;2023-05-21T09:14:52;7.80;;;5.10;;
16854;SDS011;8543;54.522;18.550;2023-05-21T09:17:17;6.80;;;5.20;;
16854;SDS011;8543;54.522;18.550;2023-05-21T09:22:32;5.80;;;4.60;;
16854;SDS011;8543;54.522;18.550;2023-05-21T09:24:57;7.40;;;5.30;;
16854;SDS011;8543;54.522;18.550;2023-05-21T09:27:23;6.70;;;5.10;;
16854;SDS011;8543;54.522;18.550;2023-05-21T09:29:48;7.30;;;5.00;;
16854;SDS011;8543;54.522;18.550;2023-05-21T09:32:14;5.90;;;4.80;;
16854;SDS011;8543;54.522;18.550;2023-05-21T09:34:41;8.70;;;5.10;;
16854;SDS011;8543;54.522;18.550;2023-05-21T09:37:06;6.40;;;4.80;;
16854;SDS011;8543;54.522;18.550;2023-05-21T09:39:33;6.40;;;4.30;;
16854;SDS011;8543;54.522;18.550;2023-05-21T09:41:59;6.40;;;4.80;;
16854;SDS011;8543;54.522;18.550;2023-05-21T09:44:26;6.80;;;4.20;;
16854;SDS011;8543;54.522;18.550;2023-05-21T09:46:55;8.20;;;5.00;;
16854;SDS011;8543;54.522;18.550;2023-05-21T09:49:22;7.70;;;4.90;;
16854;SDS011;8543;54.522;18.550;2023-05-21T09:51:58;6.50;;;4.90;;
16854;SDS011;8543;54.522;18.550;2023-05-21T09:54:24;8.20;;;4.70;;
16854;SDS011;8543;54.522;18.550;2023-05-21T09:56:51;5.70;;;4.80;;
16854;SDS011;8543;54.522;18.550;2023-05-21T09:59:17;6.00;;;4.70;;
16854;SDS011;8543;54.522;18.550;2023-05-21T10:01:42;6.10;;;4.40;;
16854;SDS011;8543;54.522;18.550;2023-05-21T10:04:09;5.10;;;4.30;;
16854;SDS011;8543;54.522;18.550;2023-05-21T10:06:41;6.90;;;5.10;;
16854;SDS011;8543;54.522;18.550;2023-05-21T10:09:10;6.60;;;4.40;;
16854;SDS011;8543;54.522;18.550;2023-05-21T10:11:36;6.70;;;4.40;;
16854;SDS011;8543;54.522;18.550;2023-05-21T10:14:08;6.00;;;4.70;;
16854;SDS011;8543;54.522;18.550;2023-05-21T10:16:41;6.20;;;4.30;;
16854;SDS011;8543;54.522;18.550;2023-05-21T10:19:06;7.10;;;4.20;;
16854;SDS011;8543;54.522;18.550;2023-05-21T10:21:35;6.80;;;4.40;;
16854;SDS011;8543;54.522;18.550;2023-05-21T10:24:01;6.90;;;4.00;;
16854;SDS011;8543;54.522;18.550;2023-05-21T10:26:28;5.50;;;4.00;;
16854;SDS011;8543;54.522;18.550;2023-05-21T10:28:54;5.60;;;4.10;;
16854;SDS011;8543;54.522;18.550;2023-05-21T10:31:21;6.90;;;4.80;;
16854;SDS011;8543;54.522;18.550;2023-05-21T10:33:47;7.90;;;4.50;;
16854;SDS011;8543;54.522;18.550;2023-05-21T10:36:14;8.40;;;4.10;;
16854;SDS011;8543;54.522;18.550;2023-05-21T10:38:41;6.90;;;4.50;;
16854;SDS011;8543;54.522;18.550;2023-05-21T10:41:07;6.20;;;4.10;;
16854;SDS011;8543;54.522;18.550;2023-05-21T10:49:04;5.40;;;4.10;;
16854;SDS011;8543;54.522;18.550;2023-05-21T10:51:48;6.20;;;3.70;;
16854;SDS011;8543;54.522;18.550;2023-05-21T10:59:46;8.30;;;6.00;;
16854;SDS011;8543;54.522;18.550;2023-05-21T11:02:13;6.10;;;4.20;;
16854;SDS011;8543;54.522;18.550;2023-05-21T11:04:40;5.40;;;4.00;;
16854;SDS011;8543;54.522;18.550;2023-05-21T11:07:08;5.10;;;3.70;;
16854;SDS011;8543;54.522;18.550;2023-05-21T11:09:33;6.80;;;4.00;;
16854;SDS011;8543;54.522;18.550;2023-05-21T11:11:59;5.60;;;3.60;;
16854;SDS011;8543;54.522;18.550;2023-05-21T11:16:50;5.40;;;4.60;;
16854;SDS011;8543;54.522;18.550;2023-05-21T11:19:16;6.30;;;3.80;;
16854;SDS011;8543;54.522;18.550;2023-05-21T11:21:41;6.00;;;4.10;;
16854;SDS011;8543;54.522;18.550;2023-05-21T11:24:07;5.70;;;3.80;;
16854;SDS011;8543;54.522;18.550;2023-05-21T11:29:12;5.40;;;3.40;;
16854;SDS011;8543;54.522;18.550;2023-05-21T11:31:38;4.70;;;3.20;;
16854;SDS011;8543;54.522;18.550;2023-05-21T11:40:16;6.10;;;3.90;;
16854;SDS011;8543;54.522;18.550;2023-05-21T11:42:44;5.50;;;4.20;;
16854;SDS011;8543;54.522;18.550;2023-05-21T11:45:13;5.20;;;3.80;;
16854;SDS011;8543;54.522;18.550;2023-05-21T11:47:41;7.10;;;4.50;;
16854;SDS011;8543;54.522;18.550;2023-05-21T11:50:10;5.40;;;3.90;;
16854;SDS011;8543;54.522;18.550;2023-05-21T11:52:37;7.10;;;4.60;;
16854;SDS011;8543;54.522;18.550;2023-05-21T11:55:02;4.40;;;3.30;;
16854;SDS011;8543;54.522;18.550;2023-05-21T11:57:28;7.10;;;3.50;;
16854;SDS011;8543;54.522;18.550;2023-05-21T11:59:57;4.50;;;3.20;;
16854;SDS011;8543;54.522;18.550;2023-05-21T12:02:26;4.70;;;3.60;;
16854;SDS011;8543;54.522;18.550;2023-05-21T12:04:54;5.60;;;3.90;;
16854;SDS011;8543;54.522;18.550;2023-05-21T12:07:24;5.70;;;3.80;;
16854;SDS011;8543;54.522;18.550;2023-05-21T12:09:52;4.80;;;3.20;;
16854;SDS011;8543;54.522;18.550;2023-05-21T12:12:18;7.70;;;3.10;;
16854;SDS011;8543;54.522;18.550;2023-05-21T12:14:48;4.90;;;3.50;;
16854;SDS011;8543;54.522;18.550;2023-05-21T12:17:16;7.10;;;3.90;;
16854;SDS011;8543;54.522;18.550;2023-05-21T12:19:42;7.50;;;4.00;;
16854;SDS011;8543;54.522;18.550;2023-05-21T12:22:09;6.60;;;3.60;;
16854;SDS011;8543;54.522;18.550;2023-05-21T12:24:34;6.20;;;3.40;;
16854;SDS011;8543;54.522;18.550;2023-05-21T12:27:01;7.60;;;3.50;;
16854;SDS011;8543;54.522;18.550;2023-05-21T12:29:33;5.50;;;3.60;;
16854;SDS011;8543;54.522;18.550;2023-05-21T12:32:00;4.70;;;3.20;;
16854;SDS011;8543;54.522;18.550;2023-05-21T12:37:10;4.90;;;3.30;;
16854;SDS011;8543;54.522;18.550;2023-05-21T12:39:42;6.00;;;3.40;;
16854;SDS011;8543;54.522;18.550;2023-05-21T12:42:08;6.80;;;3.70;;
16854;SDS011;8543;54.522;18.550;2023-05-21T12:44:34;5.50;;;3.40;;
16854;SDS011;8543;54.522;18.550;2023-05-21T12:47:00;6.00;;;3.20;;
16854;SDS011;8543;54.522;18.550;2023-05-21T12:49:33;6.20;;;3.10;;
16854;SDS011;8543;54.522;18.550;2023-05-21T12:52:03;4.90;;;3.20;;
16854;SDS011;8543;54.522;18.550;2023-05-21T12:54:36;4.50;;;3.00;;
16854;SDS011;8543;54.522;18.550;2023-05-21T12:57:13;5.20;;;2.80;;
16854;SDS011;8543;54.522;18.550;2023-05-21T12:59:50;5.20;;;3.20;;
16854;SDS011;8543;54.522;18.550;2023-05-21T13:02:26;4.90;;;3.00;;
16854;SDS011;8543;54.522;18.550;2023-05-21T13:05:02;5.00;;;2.90;;
16854;SDS011;8543;54.522;18.550;2023-05-21T13:07:31;5.80;;;3.20;;
16854;SDS011;8543;54.522;18.550;2023-05-21T13:09:58;4.20;;;2.80;;
16854;SDS011;8543;54.522;18.550;2023-05-21T13:12:25;5.10;;;3.30;;
16854;SDS011;8543;54.522;18.550;2023-05-21T13:14:52;5.20;;;3.00;;
16854;SDS011;8543;54.522;18.550;2023-05-21T13:17:19;4.80;;;3.00;;
16854;SDS011;8543;54.522;18.550;2023-05-21T13:22:31;6.40;;;3.30;;
16854;SDS011;8543;54.522;18.550;2023-05-21T13:24:57;8.10;;;3.50;;
16854;SDS011;8543;54.522;18.550;2023-05-21T13:27:22;5.20;;;3.00;;
16854;SDS011;8543;54.522;18.550;2023-05-21T13:29:47;4.30;;;3.00;;
16854;SDS011;8543;54.522;18.550;2023-05-21T13:32:13;5.50;;;3.10;;
16854;SDS011;8543;54.522;18.550;2023-05-21T13:34:38;5.60;;;3.00;;
16854;SDS011;8543;54.522;18.550;2023-05-21T13:37:04;5.40;;;2.90;;
16854;SDS011;8543;54.522;18.550;2023-05-21T13:39:29;4.30;;;2.80;;
16854;SDS011;8543;54.522;18.550;2023-05-21T13:41:55;5.00;;;3.10;;
16854;SDS011;8543;54.522;18.550;2023-05-21T13:44:20;4.60;;;3.00;;
16854;SDS011;8543;54.522;18.550;2023-05-21T13:46:46;4.60;;;3.20;;
16854;SDS011;8543;54.522;18.550;2023-05-21T13:49:11;6.60;;;3.10;;
16854;SDS011;8543;54.522;18.550;2023-05-21T13:51:37;6.30;;;3.00;;
16854;SDS011;8543;54.522;18.550;2023-05-21T13:54:02;5.10;;;2.80;;
16854;SDS011;8543;54.522;18.550;2023-05-21T13:56:28;7.40;;;3.20;;
16854;SDS011;8543;54.522;18.550;2023-05-21T13:58:53;5.10;;;3.00;;
16854;SDS011;8543;54.522;18.550;2023-05-21T14:01:19;5.50;;;2.90;;
16854;SDS011;8543;54.522;18.550;2023-05-21T14:03:45;4.50;;;2.90;;
16854;SDS011;8543;54.522;18.550;2023-05-21T14:06:10;5.80;;;2.90;;
16854;SDS011;8543;54.522;18.550;2023-05-21T14:08:35;5.30;;;3.00;;
16854;SDS011;8543;54.522;18.550;2023-05-21T14:11:01;5.60;;;2.90;;
16854;SDS011;8543;54.522;18.550;2023-05-21T14:13:27;5.00;;;3.10;;
16854;SDS011;8543;54.522;18.550;2023-05-21T14:15:52;6.80;;;3.10;;
16854;SDS011;8543;54.522;18.550;2023-05-21T14:18:18;5.30;;;2.90;;
16854;SDS011;8543;54.522;18.550;2023-05-21T14:20:43;5.30;;;2.80;;
16854;SDS011;8543;54.522;18.550;2023-05-21T14:23:09;5.20;;;2.80;;
16854;SDS011;8543;54.522;18.550;2023-05-21T14:25:35;5.70;;;2.70;;
16854;SDS011;8543;54.522;18.550;2023-05-21T14:28:01;6.50;;;2.80;;
16854;SDS011;8543;54.522;18.550;2023-05-21T14:30:26;4.60;;;2.70;;
16854;SDS011;8543;54.522;18.550;2023-05-21T14:32:51;4.60;;;2.60;;
16854;SDS011;8543;54.522;18.550;2023-05-21T14:35:17;4.30;;;2.90;;
16854;SDS011;8543;54.522;18.550;2023-05-21T14:37:42;4.60;;;2.70;;
16854;SDS011;8543;54.522;18.550;2023-05-21T14:40:08;4.50;;;2.70;;
16854;SDS011;8543;54.522;18.550;2023-05-21T14:42:34;5.60;;;2.60;;
16854;SDS011;8543;54.522;18.550;2023-05-21T14:44:59;6.80;;;2.90;;
16854;SDS011;8543;54.522;18.550;2023-05-21T14:47:25;5.60;;;2.70;;
16854;SDS011;8543;54.522;18.550;2023-05-21T14:49:50;5.90;;;2.80;;
16854;SDS011;8543;54.522;18.550;2023-05-21T14:52:16;3.70;;;2.60;;
16854;SDS011;8543;54.522;18.550;2023-05-21T14:54:41;5.30;;;2.50;;
16854;SDS011;8543;54.522;18.550;2023-05-21T14:57:06;3.90;;;2.50;;
16854;SDS011;8543;54.522;18.550;2023-05-21T14:59:32;5.40;;;2.70;;
16854;SDS011;8543;54.522;18.550;2023-05-21T15:01:57;6.80;;;2.90;;
16854;SDS011;8543;54.522;18.550;2023-05-21T15:04:23;4.50;;;2.50;;
16854;SDS011;8543;54.522;18.550;2023-05-21T15:06:48;4.00;;;2.50;;
16854;SDS011;8543;54.522;18.550;2023-05-21T15:09:14;4.20;;;2.50;;
16854;SDS011;8543;54.522;18.550;2023-05-21T15:11:39;5.40;;;2.40;;
16854;SDS011;8543;54.522;18.550;2023-05-21T15:14:07;5.10;;;2.70;;